Time;durP1;ratioP1;P1;durP2;ratioP2;P2;SDS_P1;SDS_P2;PMS_P1;PMS_P2;Temp;Humidity;BMP_temperature;BMP_pressure;BME280_temperature;BME280_humidity;BME280_pressure;Samples;Min_cycle;Max_cycle;Signal;HPM_P1;HPM_P2
2023/09/24 00:00:58;;;;;;;176.13;76.90;;;;;;;;;;4993569;28;20419;-46
2023/09/24 00:03:25;;;;;;;178.27;79.90;;;;;;;;;;4993185;28;20432;-48
2023/09/24 00:05:51;;;;;;;176.97;77.30;;;;;;;;;;4993258;28;20903;-47
2023/09/24 00:08:17;;;;;;;181.10;80.97;;;;;;;;;;4993286;28;20438;-47
2023/09/24 00:10:50;;;;;;;180.37;79.47;;;;;;;;;;4992985;28;20467;-48
2023/09/24 00:13:16;;;;;;;179.57;78.70;;;;;;;;;;4992931;28;20439;-48
2023/09/24 00:15:42;;;;;;;178.50;77.20;;;;;;;;;;4992948;28;20467;-46
2023/09/24 00:18:07;;;;;;;179.83;79.53;;;;;;;;;;4992949;28;20407;-46
2023/09/24 00:20:33;;;;;;;177.67;77.87;;;;;;;;;;4992860;28;20410;-46
2023/09/24 00:22:59;;;;;;;177.17;76.83;;;;;;;;;;4992801;28;20433;-47
2023/09/24 00:25:26;;;;;;;184.83;82.33;;;;;;;;;;4992905;28;20411;-47
2023/09/24 00:27:53;;;;;;;179.87;81.73;;;;;;;;;;4992873;28;20415;-47
2023/09/24 00:30:19;;;;;;;178.77;79.30;;;;;;;;;;4992746;28;21048;-47
2023/09/24 00:32:45;;;;;;;178.30;78.57;;;;;;;;;;4992532;28;20439;-47
2023/09/24 00:35:10;;;;;;;177.60;78.60;;;;;;;;;;4992599;28;20470;-47
2023/09/24 00:37:36;;;;;;;179.37;77.57;;;;;;;;;;4992704;28;20413;-48
2023/09/24 00:40:03;;;;;;;187.67;77.70;;;;;;;;;;4992597;28;20906;-47
2023/09/24 00:42:29;;;;;;;192.97;81.40;;;;;;;;;;4992242;28;20933;-48
2023/09/24 00:44:55;;;;;;;195.43;79.27;;;;;;;;;;4992694;28;20912;-46
2023/09/24 00:47:22;;;;;;;202.37;77.30;;;;;;;;;;4992698;28;20788;-47
2023/09/24 00:49:48;;;;;;;204.57;80.63;;;;;;;;;;4992475;28;20514;-47
2023/09/24 00:52:14;;;;;;;206.97;80.67;;;;;;;;;;4992133;28;20446;-47
2023/09/24 00:54:40;;;;;;;202.73;76.87;;;;;;;;;;4992330;28;20495;-47
2023/09/24 00:57:06;;;;;;;212.97;82.43;;;;;;;;;;4992423;28;20421;-47
2023/09/24 00:59:32;;;;;;;210.97;79.30;;;;;;;;;;4991791;28;20407;-48
2023/09/24 01:01:59;;;;;;;216.37;79.27;;;;;;;;;;4992109;28;20430;-46
2023/09/24 01:04:26;;;;;;;223.67;81.30;;;;;;;;;;4991987;28;20423;-47
2023/09/24 01:06:53;;;;;;;225.50;82.27;;;;;;;;;;4991985;28;20422;-48
2023/09/24 01:09:19;;;;;;;228.37;77.57;;;;;;;;;;4991780;28;20452;-46
2023/09/24 01:11:45;;;;;;;232.57;80.27;;;;;;;;;;4991897;28;20439;-47
2023/09/24 01:14:11;;;;;;;232.90;79.80;;;;;;;;;;4991972;28;20470;-47
2023/09/24 01:16:38;;;;;;;234.47;80.07;;;;;;;;;;4992260;28;20472;-46
2023/09/24 01:19:05;;;;;;;233.37;78.37;;;;;;;;;;4992192;28;20403;-48
2023/09/24 01:21:31;;;;;;;237.40;79.30;;;;;;;;;;4992368;28;20429;-46
2023/09/24 01:23:59;;;;;;;232.83;75.87;;;;;;;;;;4992263;28;20903;-47
2023/09/24 01:26:27;;;;;;;237.80;80.57;;;;;;;;;;4992352;28;20429;-45
2023/09/24 01:28:53;;;;;;;236.63;77.60;;;;;;;;;;4992169;28;20418;-47
2023/09/24 01:31:19;;;;;;;237.40;78.80;;;;;;;;;;4991764;28;20423;-47
2023/09/24 01:33:45;;;;;;;236.67;79.87;;;;;;;;;;4991989;28;20414;-48
2023/09/24 01:36:13;;;;;;;238.43;81.20;;;;;;;;;;4992112;28;20470;-47
2023/09/24 01:38:43;;;;;;;237.20;80.03;;;;;;;;;;4991946;28;20439;-47
2023/09/24 01:41:10;;;;;;;236.87;78.10;;;;;;;;;;4991735;28;20480;-46
2023/09/24 01:43:36;;;;;;;235.40;78.27;;;;;;;;;;4992074;28;20423;-48
2023/09/24 01:46:05;;;;;;;236.30;77.93;;;;;;;;;;4992084;28;20414;-47
2023/09/24 01:48:32;;;;;;;237.77;79.37;;;;;;;;;;4991885;28;20464;-46
2023/09/24 01:50:58;;;;;;;235.97;76.67;;;;;;;;;;4992297;28;20405;-46
2023/09/24 01:53:25;;;;;;;236.50;78.03;;;;;;;;;;4991733;28;20784;-48
2023/09/24 01:55:52;;;;;;;237.07;78.67;;;;;;;;;;4992188;28;20500;-47
2023/09/24 01:58:18;;;;;;;238.83;79.80;;;;;;;;;;4991263;28;20439;-48
2023/09/24 02:00:46;;;;;;;242.30;81.97;;;;;;;;;;4985746;28;20409;-47
2023/09/24 02:03:12;;;;;;;239.77;79.03;;;;;;;;;;4991840;28;20428;-46
2023/09/24 02:05:39;;;;;;;238.17;78.70;;;;;;;;;;4992300;28;20429;-46
2023/09/24 02:08:08;;;;;;;237.80;79.10;;;;;;;;;;4991806;28;20425;-47
2023/09/24 02:10:35;;;;;;;239.47;79.30;;;;;;;;;;4985101;28;20472;-48
2023/09/24 02:13:01;;;;;;;237.77;77.37;;;;;;;;;;4995315;28;20470;-47
2023/09/24 02:15:27;;;;;;;237.83;78.97;;;;;;;;;;4995260;28;20497;-47
2023/09/24 02:17:54;;;;;;;235.43;78.10;;;;;;;;;;4993868;28;20468;-46
2023/09/24 02:20:22;;;;;;;238.13;80.37;;;;;;;;;;4995032;28;20423;-46
2023/09/24 02:22:49;;;;;;;235.97;76.90;;;;;;;;;;4995153;28;20431;-47
2023/09/24 02:25:21;;;;;;;235.80;76.47;;;;;;;;;;4995177;28;20793;-47
2023/09/24 02:27:50;;;;;;;236.10;77.07;;;;;;;;;;4995228;28;20925;-47
2023/09/24 02:30:17;;;;;;;235.33;76.23;;;;;;;;;;4993601;28;20417;-46
2023/09/24 02:32:43;;;;;;;235.20;76.50;;;;;;;;;;4994916;28;20432;-48
2023/09/24 02:35:16;;;;;;;236.10;77.10;;;;;;;;;;4991887;28;20465;-47
2023/09/24 02:37:47;;;;;;;235.67;77.93;;;;;;;;;;4990381;28;20790;-46
2023/09/24 02:40:30;;;;;;;234.53;75.87;;;;;;;;;;4994902;28;20409;-48
2023/09/24 02:42:57;;;;;;;234.67;78.60;;;;;;;;;;4994948;28;20433;-47
2023/09/24 02:45:23;;;;;;;236.83;78.63;;;;;;;;;;4993328;28;20436;-47
2023/09/24 02:47:50;;;;;;;235.43;78.17;;;;;;;;;;4991879;28;20417;-46
2023/09/24 02:50:16;;;;;;;231.80;76.57;;;;;;;;;;4994660;28;20415;-46
2023/09/24 02:52:43;;;;;;;236.03;79.73;;;;;;;;;;4994562;28;21885;-47
2023/09/24 02:55:13;;;;;;;234.70;79.37;;;;;;;;;;4994575;28;20548;-47
2023/09/24 02:57:40;;;;;;;232.50;76.67;;;;;;;;;;4988221;28;20480;-47
2023/09/24 03:00:16;;;;;;;235.10;80.80;;;;;;;;;;4994495;28;20457;-47
2023/09/24 03:02:42;;;;;;;234.77;80.60;;;;;;;;;;4990515;28;20440;-47
2023/09/24 03:05:12;;;;;;;233.00;79.03;;;;;;;;;;4994467;28;20413;-47
2023/09/24 03:07:41;;;;;;;232.50;78.73;;;;;;;;;;4985111;28;20413;-46
2023/09/24 03:10:09;;;;;;;232.33;78.10;;;;;;;;;;4994489;28;20437;-47
2023/09/24 03:12:35;;;;;;;234.37;79.77;;;;;;;;;;4994243;28;20479;-47
2023/09/24 03:15:02;;;;;;;230.47;78.17;;;;;;;;;;4994324;28;20459;-48
2023/09/24 03:17:28;;;;;;;224.97;79.47;;;;;;;;;;4994584;28;20410;-48
2023/09/24 03:19:54;;;;;;;225.13;81.20;;;;;;;;;;4990010;28;20476;-48
2023/09/24 03:22:21;;;;;;;226.90;79.17;;;;;;;;;;4993492;28;20439;-47
2023/09/24 03:24:47;;;;;;;231.33;80.17;;;;;;;;;;4994186;28;20404;-47
2023/09/24 03:27:14;;;;;;;233.33;79.60;;;;;;;;;;4984678;28;20427;-48
2023/09/24 03:29:41;;;;;;;233.07;79.80;;;;;;;;;;4994106;28;20415;-47
2023/09/24 03:32:06;;;;;;;231.50;80.20;;;;;;;;;;4993874;28;20921;-47
2023/09/24 03:34:34;;;;;;;231.30;77.80;;;;;;;;;;4993826;28;20463;-47
2023/09/24 03:37:00;;;;;;;233.90;81.80;;;;;;;;;;4994047;28;20483;-47
2023/09/24 03:39:26;;;;;;;231.20;77.70;;;;;;;;;;4993727;28;20495;-48
2023/09/24 03:41:52;;;;;;;232.13;79.53;;;;;;;;;;4993667;28;20436;-47
2023/09/24 03:44:18;;;;;;;236.27;81.17;;;;;;;;;;4993648;28;20924;-46
2023/09/24 03:46:44;;;;;;;233.87;78.93;;;;;;;;;;4993781;28;20419;-47
2023/09/24 03:49:11;;;;;;;233.97;77.23;;;;;;;;;;4993644;28;20422;-47
2023/09/24 03:51:37;;;;;;;233.10;77.70;;;;;;;;;;4993552;28;20426;-48
2023/09/24 03:54:03;;;;;;;232.13;77.87;;;;;;;;;;4993486;28;20467;-46
2023/09/24 03:56:29;;;;;;;233.97;78.60;;;;;;;;;;4993702;28;20405;-48
2023/09/24 03:58:55;;;;;;;235.07;81.17;;;;;;;;;;4993564;28;20496;-47
2023/09/24 04:01:22;;;;;;;231.57;76.40;;;;;;;;;;4993300;28;20471;-47
2023/09/24 04:03:48;;;;;;;232.30;76.50;;;;;;;;;;4993592;28;20408;-48
2023/09/24 04:06:14;;;;;;;234.57;80.27;;;;;;;;;;4993485;28;20454;-46
2023/09/24 04:08:40;;;;;;;230.43;75.50;;;;;;;;;;4993221;28;20413;-47
2023/09/24 04:11:09;;;;;;;229.50;77.23;;;;;;;;;;4993203;28;20413;-47
2023/09/24 04:13:36;;;;;;;232.37;77.90;;;;;;;;;;4985555;28;20397;-46
2023/09/24 04:16:12;;;;;;;230.87;76.27;;;;;;;;;;4993149;28;20450;-48
2023/09/24 04:18:39;;;;;;;231.47;77.10;;;;;;;;;;4991662;28;20407;-48
2023/09/24 04:21:13;;;;;;;231.87;76.27;;;;;;;;;;4992849;28;20412;-47
2023/09/24 04:23:39;;;;;;;231.90;77.90;;;;;;;;;;4986992;28;20406;-47
2023/09/24 04:26:05;;;;;;;230.77;76.20;;;;;;;;;;4993064;28;20504;-47
2023/09/24 04:28:31;;;;;;;233.30;77.37;;;;;;;;;;4992901;28;20406;-46
2023/09/24 04:30:57;;;;;;;233.73;79.43;;;;;;;;;;4992919;28;20418;-48
2023/09/24 04:33:23;;;;;;;233.97;77.07;;;;;;;;;;4992359;28;20517;-46
2023/09/24 04:35:48;;;;;;;233.37;78.67;;;;;;;;;;4992593;28;20455;-47
2023/09/24 04:38:16;;;;;;;233.57;77.17;;;;;;;;;;4975982;28;20961;-48
2023/09/24 04:40:42;;;;;;;233.30;77.37;;;;;;;;;;4982091;28;20431;-47
2023/09/24 04:43:10;;;;;;;232.03;76.40;;;;;;;;;;4992739;28;20450;-47
2023/09/24 04:45:36;;;;;;;234.13;77.53;;;;;;;;;;4992753;28;20439;-48
2023/09/24 04:48:02;;;;;;;233.07;78.40;;;;;;;;;;4992812;28;20418;-48
2023/09/24 04:50:30;;;;;;;236.17;80.27;;;;;;;;;;4992734;28;20420;-46
2023/09/24 04:52:55;;;;;;;233.37;77.07;;;;;;;;;;4992483;28;20467;-46
2023/09/24 04:55:21;;;;;;;234.73;80.23;;;;;;;;;;4992472;28;20457;-47
2023/09/24 04:57:47;;;;;;;232.03;78.17;;;;;;;;;;4992506;28;20409;-47
2023/09/24 05:00:15;;;;;;;233.07;77.83;;;;;;;;;;4992425;28;20411;-47
2023/09/24 05:02:41;;;;;;;235.07;79.77;;;;;;;;;;4985015;28;20439;-48
2023/09/24 05:05:07;;;;;;;232.80;78.77;;;;;;;;;;4992351;28;20419;-48
2023/09/24 05:07:33;;;;;;;232.53;78.53;;;;;;;;;;4992573;28;20903;-48
2023/09/24 05:09:59;;;;;;;232.67;77.70;;;;;;;;;;4992642;28;20436;-46
2023/09/24 05:12:25;;;;;;;234.63;79.57;;;;;;;;;;4992255;28;20426;-47
2023/09/24 05:14:52;;;;;;;232.77;77.23;;;;;;;;;;4992318;28;20474;-48
2023/09/24 05:17:18;;;;;;;233.53;78.00;;;;;;;;;;4992341;28;20413;-48
2023/09/24 05:19:43;;;;;;;232.60;77.50;;;;;;;;;;4991334;28;20404;-47
2023/09/24 05:22:09;;;;;;;234.20;78.47;;;;;;;;;;4992130;28;20522;-47
2023/09/24 05:24:36;;;;;;;231.43;76.23;;;;;;;;;;4988294;28;20412;-48
2023/09/24 05:27:02;;;;;;;231.13;75.37;;;;;;;;;;4992354;28;20814;-48
2023/09/24 05:29:30;;;;;;;234.90;77.87;;;;;;;;;;4992125;28;20471;-48
2023/09/24 05:31:56;;;;;;;232.77;75.67;;;;;;;;;;4992095;28;20428;-47
2023/09/24 05:34:21;;;;;;;231.93;77.17;;;;;;;;;;4992037;28;20456;-46
2023/09/24 05:36:50;;;;;;;231.57;76.00;;;;;;;;;;4992133;28;20414;-47
2023/09/24 05:39:16;;;;;;;231.40;75.60;;;;;;;;;;4991987;28;20411;-46
2023/09/24 05:41:41;;;;;;;232.67;77.77;;;;;;;;;;4986198;28;20940;-46
2023/09/24 05:44:07;;;;;;;232.20;75.30;;;;;;;;;;4992051;28;20436;-47
2023/09/24 05:46:33;;;;;;;231.97;78.10;;;;;;;;;;4986734;28;20425;-48
2023/09/24 05:49:00;;;;;;;230.23;76.17;;;;;;;;;;4994697;28;20474;-48
2023/09/24 05:51:26;;;;;;;232.63;75.57;;;;;;;;;;4994859;28;20842;-47
2023/09/24 05:53:52;;;;;;;233.37;81.27;;;;;;;;;;4995845;28;20424;-46
2023/09/24 05:56:19;;;;;;;230.20;74.93;;;;;;;;;;4995876;28;20409;-47
2023/09/24 05:58:44;;;;;;;232.27;76.63;;;;;;;;;;4995798;28;20718;-48
2023/09/24 06:01:17;;;;;;;232.13;75.87;;;;;;;;;;4995599;28;20400;-47
2023/09/24 06:03:43;;;;;;;232.70;77.27;;;;;;;;;;4993384;28;20408;-48
2023/09/24 06:06:09;;;;;;;232.73;76.90;;;;;;;;;;4991813;28;20415;-48
2023/09/24 06:08:36;;;;;;;231.93;76.27;;;;;;;;;;4995650;28;20500;-47
2023/09/24 06:11:02;;;;;;;232.37;79.37;;;;;;;;;;4995477;28;20781;-48
2023/09/24 06:13:28;;;;;;;235.27;79.63;;;;;;;;;;4995471;28;20419;-46
2023/09/24 06:16:01;;;;;;;233.07;79.57;;;;;;;;;;4995449;28;20466;-46
2023/09/24 06:18:27;;;;;;;234.30;79.70;;;;;;;;;;4982733;28;20418;-47
2023/09/24 06:20:53;;;;;;;236.20;79.57;;;;;;;;;;4980094;28;20406;-48
2023/09/24 06:23:19;;;;;;;233.13;78.87;;;;;;;;;;4993253;28;20458;-47
2023/09/24 06:25:46;;;;;;;233.53;76.47;;;;;;;;;;4991392;28;20485;-48
2023/09/24 06:28:12;;;;;;;235.57;77.77;;;;;;;;;;4992113;28;20421;-47
2023/09/24 06:30:38;;;;;;;237.97;78.60;;;;;;;;;;4995124;28;20406;-47
2023/09/24 06:33:05;;;;;;;234.27;77.57;;;;;;;;;;4995082;28;20441;-47
2023/09/24 06:35:32;;;;;;;235.17;78.00;;;;;;;;;;4994981;28;20473;-47
2023/09/24 06:37:58;;;;;;;239.17;81.77;;;;;;;;;;4995151;28;20403;-47
2023/09/24 06:40:24;;;;;;;239.17;81.63;;;;;;;;;;4995010;28;20467;-47
2023/09/24 06:42:50;;;;;;;240.67;82.37;;;;;;;;;;4994709;28;20483;-48
2023/09/24 06:45:16;;;;;;;241.53;82.93;;;;;;;;;;4993743;28;20451;-47
2023/09/24 06:47:42;;;;;;;242.93;88.27;;;;;;;;;;4994911;28;20417;-47
2023/09/24 06:50:08;;;;;;;241.90;86.20;;;;;;;;;;4994985;28;20415;-48
2023/09/24 06:52:34;;;;;;;244.50;88.80;;;;;;;;;;4986751;28;20566;-48
2023/09/24 06:55:00;;;;;;;244.77;89.47;;;;;;;;;;4994800;28;20548;-47
2023/09/24 06:57:26;;;;;;;248.30;93.57;;;;;;;;;;4991484;28;20430;-48
2023/09/24 06:59:52;;;;;;;245.63;93.17;;;;;;;;;;4994544;28;20469;-48
2023/09/24 07:02:18;;;;;;;247.53;97.00;;;;;;;;;;4994477;28;20459;-47
2023/09/24 07:04:44;;;;;;;247.23;94.33;;;;;;;;;;4994561;28;20507;-48
2023/09/24 07:07:10;;;;;;;248.53;96.87;;;;;;;;;;4994342;28;20419;-48
2023/09/24 07:09:36;;;;;;;248.13;96.80;;;;;;;;;;4994495;28;20421;-47
2023/09/24 07:12:02;;;;;;;248.23;98.13;;;;;;;;;;4994113;28;20514;-47
2023/09/24 07:14:28;;;;;;;248.07;97.27;;;;;;;;;;4994315;28;20466;-48
2023/09/24 07:16:55;;;;;;;249.90;104.57;;;;;;;;;;4994430;28;20411;-48
2023/09/24 07:19:21;;;;;;;253.47;108.27;;;;;;;;;;4994462;28;20407;-49
2023/09/24 07:21:48;;;;;;;248.90;105.40;;;;;;;;;;4994416;28;20485;-48
2023/09/24 07:24:15;;;;;;;245.97;101.80;;;;;;;;;;4991673;28;20958;-48
2023/09/24 07:26:44;;;;;;;247.27;101.13;;;;;;;;;;4994132;28;20448;-47
2023/09/24 07:29:10;;;;;;;249.17;105.07;;;;;;;;;;4994347;28;20436;-48
2023/09/24 07:31:36;;;;;;;255.20;115.70;;;;;;;;;;4993815;28;20471;-47
2023/09/24 07:34:02;;;;;;;251.33;109.40;;;;;;;;;;4993823;28;20789;-48
2023/09/24 07:36:29;;;;;;;251.40;105.80;;;;;;;;;;4987252;28;20942;-48
2023/09/24 07:38:55;;;;;;;258.23;115.80;;;;;;;;;;4990950;28;20441;-49
2023/09/24 07:41:21;;;;;;;258.97;114.47;;;;;;;;;;4990176;28;20448;-49
2023/09/24 07:43:48;;;;;;;254.63;110.57;;;;;;;;;;4991066;28;20875;-48
2023/09/24 07:46:19;;;;;;;251.00;107.87;;;;;;;;;;4988157;28;20517;-48
2023/09/24 07:48:47;;;;;;;254.23;110.57;;;;;;;;;;4991118;28;20411;-48
2023/09/24 07:51:13;;;;;;;252.77;109.10;;;;;;;;;;4991782;28;20419;-48
2023/09/24 07:53:40;;;;;;;245.67;104.77;;;;;;;;;;4991503;28;20416;-46
2023/09/24 07:56:07;;;;;;;249.70;110.33;;;;;;;;;;4989387;28;20463;-47
2023/09/24 07:58:34;;;;;;;277.57;130.50;;;;;;;;;;4982875;28;20504;-48
2023/09/24 08:01:07;;;;;;;249.77;108.97;;;;;;;;;;4989740;28;20746;-47
2023/09/24 08:03:33;;;;;;;246.13;103.53;;;;;;;;;;4993337;28;20501;-47
2023/09/24 08:05:59;;;;;;;251.07;114.97;;;;;;;;;;4993418;28;20490;-48
2023/09/24 08:08:26;;;;;;;252.63;109.93;;;;;;;;;;4992884;28;20415;-48
2023/09/24 08:10:52;;;;;;;251.43;111.30;;;;;;;;;;4992906;28;20425;-47
2023/09/24 08:13:19;;;;;;;267.40;119.77;;;;;;;;;;4988726;28;20455;-48
2023/09/24 08:15:45;;;;;;;250.50;109.00;;;;;;;;;;4982962;28;21043;-48
2023/09/24 08:18:12;;;;;;;252.07;111.17;;;;;;;;;;4989055;28;20434;-48
2023/09/24 08:20:39;;;;;;;253.37;110.73;;;;;;;;;;4991368;28;20417;-48
2023/09/24 08:23:05;;;;;;;249.97;112.60;;;;;;;;;;4991103;28;20428;-49
2023/09/24 08:25:31;;;;;;;248.97;106.17;;;;;;;;;;4991181;28;20830;-47
2023/09/24 08:27:57;;;;;;;245.00;106.70;;;;;;;;;;4991767;28;20483;-48
2023/09/24 08:30:24;;;;;;;251.57;110.37;;;;;;;;;;4991079;28;20944;-47
2023/09/24 08:32:50;;;;;;;246.77;101.77;;;;;;;;;;4990588;28;20491;-47
2023/09/24 08:35:16;;;;;;;248.30;106.97;;;;;;;;;;4991222;28;20840;-47
2023/09/24 08:37:42;;;;;;;252.00;107.57;;;;;;;;;;4990871;28;20431;-48
2023/09/24 08:40:12;;;;;;;245.80;102.37;;;;;;;;;;4991337;28;20799;-48
2023/09/24 08:42:38;;;;;;;260.50;117.90;;;;;;;;;;4986895;28;20886;-47
2023/09/24 08:45:10;;;;;;;252.60;108.17;;;;;;;;;;4990485;28;20443;-47
2023/09/24 08:47:38;;;;;;;248.90;105.90;;;;;;;;;;4990452;28;20419;-46
2023/09/24 08:50:04;;;;;;;248.77;108.30;;;;;;;;;;4991045;28;20482;-46
2023/09/24 08:52:37;;;;;;;259.83;119.07;;;;;;;;;;4989684;28;20437;-49
2023/09/24 08:55:06;;;;;;;248.97;110.43;;;;;;;;;;4990936;28;21044;-48
2023/09/24 08:57:33;;;;;;;253.43;113.30;;;;;;;;;;4990911;28;20752;-47
2023/09/24 08:59:59;;;;;;;249.67;114.70;;;;;;;;;;4990968;28;20383;-47
2023/09/24 09:02:25;;;;;;;257.33;118.17;;;;;;;;;;4989511;28;20493;-46
2023/09/24 09:04:51;;;;;;;250.77;113.33;;;;;;;;;;4990547;28;20412;-48
2023/09/24 09:07:17;;;;;;;251.07;117.07;;;;;;;;;;4988293;28;20423;-47
2023/09/24 09:09:57;;;;;;;256.67;123.73;;;;;;;;;;4988355;28;20431;-49
2023/09/24 09:12:24;;;;;;;260.17;127.37;;;;;;;;;;4989674;28;20948;-47
2023/09/24 09:14:50;;;;;;;250.97;117.43;;;;;;;;;;4990455;28;20547;-48
2023/09/24 09:17:17;;;;;;;255.53;122.10;;;;;;;;;;4984145;28;20424;-47
2023/09/24 09:19:52;;;;;;;253.47;123.37;;;;;;;;;;4989613;28;20500;-47
2023/09/24 09:22:22;;;;;;;255.53;122.60;;;;;;;;;;4979945;28;20411;-47
2023/09/24 09:25:08;;;;;;;251.97;122.10;;;;;;;;;;4990729;28;20971;-48
2023/09/24 09:27:34;;;;;;;254.70;123.50;;;;;;;;;;4988472;28;20391;-48
2023/09/24 09:30:15;;;;;;;253.90;125.07;;;;;;;;;;4989979;28;20408;-49
2023/09/24 09:32:43;;;;;;;252.37;126.70;;;;;;;;;;4982318;28;20425;-47
2023/09/24 09:35:09;;;;;;;252.10;126.00;;;;;;;;;;4989454;28;20441;-47
2023/09/24 09:37:35;;;;;;;253.87;127.10;;;;;;;;;;4990999;28;20407;-47
2023/09/24 09:40:01;;;;;;;256.00;130.47;;;;;;;;;;4990386;28;20844;-48
2023/09/24 09:42:34;;;;;;;259.27;128.40;;;;;;;;;;4985109;28;20974;-48
2023/09/24 09:45:07;;;;;;;250.80;129.40;;;;;;;;;;4982918;28;20414;-48
2023/09/24 09:47:38;;;;;;;259.43;136.63;;;;;;;;;;4983181;28;20562;-49
2023/09/24 09:50:05;;;;;;;251.07;129.03;;;;;;;;;;4990453;28;20415;-48
2023/09/24 09:52:38;;;;;;;257.17;139.07;;;;;;;;;;4989318;28;20418;-47
2023/09/24 09:55:04;;;;;;;251.30;126.33;;;;;;;;;;4987502;28;20926;-47
2023/09/24 09:57:34;;;;;;;252.70;130.83;;;;;;;;;;4990591;28;20497;-48
2023/09/24 10:00:01;;;;;;;253.53;132.97;;;;;;;;;;4990093;28;20416;-47
2023/09/24 10:02:30;;;;;;;255.83;134.03;;;;;;;;;;4988953;28;20410;-47
2023/09/24 10:05:00;;;;;;;255.57;138.80;;;;;;;;;;4989635;28;20466;-48
2023/09/24 10:07:26;;;;;;;260.77;137.80;;;;;;;;;;4989559;28;20412;-47
2023/09/24 10:09:52;;;;;;;256.23;135.90;;;;;;;;;;4985953;28;20386;-48
2023/09/24 10:12:34;;;;;;;263.23;140.27;;;;;;;;;;4984369;28;20552;-48
2023/09/24 10:15:20;;;;;;;251.17;128.40;;;;;;;;;;4989731;28;20825;-48
2023/09/24 10:17:50;;;;;;;259.43;134.80;;;;;;;;;;4989454;28;20425;-48
2023/09/24 10:20:18;;;;;;;250.53;129.93;;;;;;;;;;4988954;28;20904;-48
2023/09/24 10:22:45;;;;;;;252.63;133.80;;;;;;;;;;4983823;28;20482;-48
2023/09/24 10:25:30;;;;;;;254.97;139.13;;;;;;;;;;4989136;28;20428;-47
2023/09/24 10:28:05;;;;;;;250.97;134.87;;;;;;;;;;4990213;28;20382;-47
2023/09/24 10:30:51;;;;;;;259.80;142.30;;;;;;;;;;4985519;28;20424;-47
2023/09/24 10:33:37;;;;;;;251.37;135.47;;;;;;;;;;4989131;28;20850;-47
2023/09/24 10:36:22;;;;;;;253.73;137.90;;;;;;;;;;4992865;28;20934;-47
2023/09/24 10:39:07;;;;;;;258.23;140.13;;;;;;;;;;4986997;28;20390;-47
2023/09/24 10:41:34;;;;;;;257.17;142.33;;;;;;;;;;4991697;28;20470;-47
2023/09/24 10:44:18;;;;;;;255.67;141.47;;;;;;;;;;4990286;28;20929;-47
2023/09/24 10:46:44;;;;;;;256.57;142.47;;;;;;;;;;4987840;28;20939;-46
2023/09/24 10:49:10;;;;;;;256.03;144.73;;;;;;;;;;4989248;28;20380;-47
2023/09/24 10:51:36;;;;;;;254.93;143.50;;;;;;;;;;4990571;28;20424;-47
2023/09/24 10:54:11;;;;;;;254.33;140.00;;;;;;;;;;4991275;28;20386;-47
2023/09/24 10:56:39;;;;;;;254.23;142.43;;;;;;;;;;4990247;28;20874;-47
2023/09/24 10:59:05;;;;;;;253.73;138.17;;;;;;;;;;4990781;28;20407;-47
2023/09/24 11:01:31;;;;;;;255.50;140.47;;;;;;;;;;4988919;28;20757;-48
2023/09/24 11:03:57;;;;;;;249.20;136.97;;;;;;;;;;4985762;28;20382;-49
2023/09/24 11:06:32;;;;;;;252.03;134.43;;;;;;;;;;4985288;28;20416;-48
2023/09/24 11:09:17;;;;;;;252.73;140.47;;;;;;;;;;4988177;28;20441;-48
2023/09/24 11:11:43;;;;;;;255.20;137.97;;;;;;;;;;4987719;28;20814;-48
2023/09/24 11:14:25;;;;;;;250.83;135.10;;;;;;;;;;4988755;28;20443;-48
2023/09/24 11:16:51;;;;;;;256.10;140.20;;;;;;;;;;4992437;28;20833;-47
2023/09/24 11:19:37;;;;;;;251.67;135.53;;;;;;;;;;4992586;28;20404;-47
2023/09/24 11:22:15;;;;;;;258.80;144.87;;;;;;;;;;4987885;28;20428;-48
2023/09/24 11:24:41;;;;;;;254.23;140.90;;;;;;;;;;4989823;28;20419;-47
2023/09/24 11:27:07;;;;;;;251.70;137.47;;;;;;;;;;4991076;28;20419;-47
2023/09/24 11:29:33;;;;;;;257.77;147.20;;;;;;;;;;4991965;28;20763;-47
2023/09/24 11:31:59;;;;;;;256.17;140.07;;;;;;;;;;4987439;28;21029;-48
2023/09/24 11:34:26;;;;;;;252.80;138.10;;;;;;;;;;4983450;28;20885;-48
2023/09/24 11:36:54;;;;;;;255.73;137.70;;;;;;;;;;4989853;28;20944;-47
2023/09/24 11:39:20;;;;;;;249.43;132.77;;;;;;;;;;4991974;28;20416;-47
2023/09/24 11:41:46;;;;;;;261.00;144.33;;;;;;;;;;4990766;28;20445;-48
2023/09/24 11:44:12;;;;;;;253.97;141.10;;;;;;;;;;4989990;28;20427;-47
2023/09/24 11:46:40;;;;;;;254.03;138.63;;;;;;;;;;4985462;28;20480;-47
2023/09/24 11:49:06;;;;;;;258.43;148.93;;;;;;;;;;4986543;28;20400;-47
2023/09/24 11:51:33;;;;;;;260.07;142.83;;;;;;;;;;4987857;28;20475;-47
2023/09/24 11:53:59;;;;;;;253.27;140.90;;;;;;;;;;4989850;28;20383;-48
2023/09/24 11:56:26;;;;;;;256.07;141.50;;;;;;;;;;4990789;28;20521;-47
2023/09/24 11:58:52;;;;;;;252.77;133.83;;;;;;;;;;4991793;28;20477;-48
2023/09/24 12:01:18;;;;;;;253.20;141.13;;;;;;;;;;4992037;28;20744;-47
2023/09/24 12:03:45;;;;;;;256.80;144.60;;;;;;;;;;4984845;28;20926;-47
2023/09/24 12:06:11;;;;;;;253.93;138.37;;;;;;;;;;4988190;28;20575;-49
2023/09/24 12:08:37;;;;;;;256.83;145.27;;;;;;;;;;4991063;28;20789;-47
2023/09/24 12:11:03;;;;;;;251.17;135.30;;;;;;;;;;4992226;28;20398;-48
2023/09/24 12:13:31;;;;;;;256.47;141.63;;;;;;;;;;4990422;28;20395;-46
2023/09/24 12:15:57;;;;;;;252.90;139.70;;;;;;;;;;4991790;28;20466;-47
2023/09/24 12:18:23;;;;;;;259.40;146.83;;;;;;;;;;4990999;28;20443;-46
2023/09/24 12:20:49;;;;;;;255.77;139.03;;;;;;;;;;4990536;28;20410;-48
2023/09/24 12:23:15;;;;;;;261.00;148.80;;;;;;;;;;4983070;28;20963;-46
2023/09/24 12:25:41;;;;;;;250.93;133.40;;;;;;;;;;4984848;28;20457;-48
2023/09/24 12:28:08;;;;;;;253.83;135.70;;;;;;;;;;4990883;28;20412;-47
2023/09/24 12:30:35;;;;;;;250.13;135.90;;;;;;;;;;4981282;28;20416;-47
2023/09/24 12:33:01;;;;;;;261.97;143.90;;;;;;;;;;4985848;28;20422;-47
2023/09/24 12:35:27;;;;;;;250.00;140.63;;;;;;;;;;4989861;28;20810;-47
2023/09/24 12:37:56;;;;;;;254.23;143.00;;;;;;;;;;4987623;28;20436;-47
2023/09/24 12:40:23;;;;;;;254.30;139.57;;;;;;;;;;4989450;28;20387;-48
2023/09/24 12:42:49;;;;;;;263.40;150.83;;;;;;;;;;4987016;28;20914;-46
2023/09/24 12:45:16;;;;;;;257.67;140.60;;;;;;;;;;4983431;28;20813;-47
2023/09/24 12:47:42;;;;;;;255.60;144.67;;;;;;;;;;4990256;28;20387;-48
2023/09/24 12:50:09;;;;;;;250.13;138.80;;;;;;;;;;4989969;28;20851;-49
2023/09/24 12:52:36;;;;;;;256.47;146.90;;;;;;;;;;4990260;28;20711;-48
2023/09/24 12:55:03;;;;;;;251.20;138.80;;;;;;;;;;4984861;28;20430;-46
2023/09/24 12:57:29;;;;;;;254.60;142.70;;;;;;;;;;4979849;28;20459;-47
2023/09/24 12:59:56;;;;;;;257.23;145.20;;;;;;;;;;4989950;28;20415;-47
2023/09/24 13:02:22;;;;;;;255.20;144.20;;;;;;;;;;4988711;28;20582;-46
2023/09/24 13:04:48;;;;;;;252.60;142.03;;;;;;;;;;4990857;28;20919;-46
2023/09/24 13:07:14;;;;;;;254.63;143.20;;;;;;;;;;4985953;28;20420;-48
2023/09/24 13:09:40;;;;;;;256.83;143.43;;;;;;;;;;4986855;28;20407;-48
2023/09/24 13:12:07;;;;;;;251.57;141.47;;;;;;;;;;4989535;28;20894;-47
2023/09/24 13:14:33;;;;;;;250.93;137.80;;;;;;;;;;4991030;28;20859;-46
2023/09/24 13:16:59;;;;;;;256.47;142.60;;;;;;;;;;4990936;28;20938;-47
2023/09/24 13:19:25;;;;;;;248.43;133.77;;;;;;;;;;4990792;28;20481;-48
2023/09/24 13:21:51;;;;;;;249.90;137.57;;;;;;;;;;4990304;28;20930;-48
2023/09/24 13:24:17;;;;;;;247.07;135.50;;;;;;;;;;4990584;28;20389;-48
2023/09/24 13:26:43;;;;;;;249.93;138.70;;;;;;;;;;4989021;28;20874;-47
2023/09/24 13:29:09;;;;;;;268.77;153.60;;;;;;;;;;4988167;28;20767;-47
2023/09/24 13:31:38;;;;;;;248.30;135.53;;;;;;;;;;4989908;28;20443;-48
2023/09/24 13:34:05;;;;;;;249.00;136.43;;;;;;;;;;4983400;28;20442;-47
2023/09/24 13:36:31;;;;;;;253.20;139.93;;;;;;;;;;4989686;28;20423;-47
2023/09/24 13:38:59;;;;;;;249.90;135.50;;;;;;;;;;4990107;28;20406;-47
2023/09/24 13:41:25;;;;;;;330.67;211.53;;;;;;;;;;4982616;28;21056;-47
2023/09/24 13:43:51;;;;;;;253.00;139.67;;;;;;;;;;4967498;28;20531;-47
2023/09/24 13:46:17;;;;;;;253.07;135.37;;;;;;;;;;4986581;28;20421;-47
2023/09/24 13:48:43;;;;;;;251.23;138.63;;;;;;;;;;4989430;28;20769;-48
2023/09/24 13:51:09;;;;;;;256.37;141.17;;;;;;;;;;4989251;28;20424;-48
2023/09/24 13:53:35;;;;;;;266.87;146.80;;;;;;;;;;4989868;28;20413;-46
2023/09/24 13:56:01;;;;;;;254.37;140.23;;;;;;;;;;4991852;28;20434;-47
2023/09/24 13:58:28;;;;;;;258.10;138.30;;;;;;;;;;4979180;28;20449;-47
2023/09/24 14:00:54;;;;;;;254.60;135.83;;;;;;;;;;4991509;28;20412;-47